Time;durP1;ratioP1;P1;durP2;ratioP2;P2;SDS_P1;SDS_P2;PMS_P1;PMS_P2;Temp;Humidity;BMP_temperature;BMP_pressure;BME280_temperature;BME280_humidity;BME280_pressure;Samples;Min_cycle;Max_cycle;Signal;HPM_P1;HPM_P2
2022/09/16 03:02:07;;;;;;;4.45;0.93;;;10.90;99.90;;;;;;5263598;22;20057;-84
2022/09/16 03:04:34;;;;;;;5.53;0.88;;;10.90;99.90;;;;;;5016706;28;20034;-82
2022/09/16 03:07:01;;;;;;;3.92;0.93;;;11.00;99.90;;;;;;5000256;28;20068;-83
2022/09/16 03:09:28;;;;;;;3.97;1.20;;;11.00;99.90;;;;;;4999674;28;20477;-85
2022/09/16 03:12:26;;;;;;;9.23;1.00;;;11.00;99.90;;;;;;5002082;28;20172;-84
2022/09/16 03:14:52;;;;;;;5.32;0.93;;;11.00;99.90;;;;;;4978871;28;20050;-82
2022/09/16 03:17:36;;;;;;;5.35;1.20;;;11.00;99.90;;;;;;4997697;28;20189;-82
2022/09/16 03:20:33;;;;;;;6.82;1.35;;;11.00;99.90;;;;;;4996176;28;20042;-84
2022/09/16 03:23:32;;;;;;;9.68;1.30;;;11.00;99.90;;;;;;4996138;28;20524;-82
2022/09/16 03:26:06;;;;;;;6.35;1.23;;;11.00;99.90;;;;;;4971774;28;20461;-82
2022/09/16 03:28:44;;;;;;;5.70;1.33;;;11.00;99.90;;;;;;4995737;28;20137;-80
2022/09/16 03:31:17;;;;;;;5.20;1.20;;;11.00;99.90;;;;;;4997087;28;20121;-83
2022/09/16 03:33:51;;;;;;;6.55;1.20;;;10.90;99.90;;;;;;4996858;28;20047;-82
2022/09/16 03:36:23;;;;;;;9.20;1.80;;;10.90;99.90;;;;;;4996130;28;20046;-83
2022/09/16 03:38:51;;;;;;;6.20;1.45;;;11.00;99.90;;;;;;4995923;28;20053;-84
2022/09/16 03:41:17;;;;;;;6.57;1.30;;;11.00;99.90;;;;;;4995970;28;20042;-84
2022/09/16 03:43:53;;;;;;;11.32;1.88;;;10.90;99.90;;;;;;4995521;28;20054;-84
2022/09/16 03:46:19;;;;;;;6.05;1.20;;;10.90;99.90;;;;;;4995360;28;20074;-82
2022/09/16 03:48:44;;;;;;;8.80;1.20;;;10.80;99.90;;;;;;4995697;28;20069;-81
2022/09/16 03:51:11;;;;;;;10.95;1.25;;;10.80;99.90;;;;;;4995608;28;20045;-82
2022/09/16 03:53:37;;;;;;;4.25;1.00;;;10.70;99.90;;;;;;4995999;28;20080;-83
2022/09/16 03:56:02;;;;;;;7.07;1.10;;;10.70;99.90;;;;;;4978339;28;20082;-82
2022/09/16 03:58:28;;;;;;;6.65;1.42;;;10.70;99.90;;;;;;4995694;28;20034;-81
2022/09/16 04:00:53;;;;;;;7.10;1.67;;;10.70;99.90;;;;;;4994858;28;20125;-83
2022/09/16 04:03:19;;;;;;;10.93;2.30;;;10.70;99.90;;;;;;4995127;28;20046;-81
2022/09/16 04:05:45;;;;;;;6.47;1.77;;;10.70;99.90;;;;;;4995635;28;20049;-83
2022/09/16 04:08:11;;;;;;;8.65;1.25;;;10.70;99.90;;;;;;4995394;28;20405;-82
2022/09/16 04:10:36;;;;;;;7.40;2.15;;;10.70;99.90;;;;;;4996437;28;20045;-81
2022/09/16 04:13:02;;;;;;;6.25;1.83;;;10.70;99.90;;;;;;4996437;28;20087;-82
2022/09/16 04:15:28;;;;;;;4.47;1.30;;;10.70;99.90;;;;;;4994965;28;20093;-81
2022/09/16 04:17:55;;;;;;;7.22;1.80;;;10.70;99.90;;;;;;4994720;28;20104;-84
2022/09/16 04:20:20;;;;;;;5.68;1.52;;;10.70;99.90;;;;;;4978675;28;20501;-83
2022/09/16 04:22:46;;;;;;;5.03;1.23;;;10.60;99.90;;;;;;4994671;28;20077;-83
2022/09/16 04:25:12;;;;;;;12.82;1.60;;;10.60;99.90;;;;;;4994933;28;20117;-84
2022/09/16 04:27:37;;;;;;;8.75;1.73;;;10.50;99.90;;;;;;4995123;28;20038;-81
2022/09/16 04:30:03;;;;;;;13.75;2.47;;;10.50;99.90;;;;;;4996219;28;20042;-84
2022/09/16 04:32:29;;;;;;;7.55;1.58;;;10.50;99.90;;;;;;4996075;28;20390;-82
2022/09/16 04:34:54;;;;;;;7.40;1.98;;;10.50;99.90;;;;;;4995241;28;20089;-82
2022/09/16 04:37:20;;;;;;;6.13;1.50;;;10.50;99.90;;;;;;4994594;28;20434;-82
2022/09/16 04:39:45;;;;;;;7.70;1.27;;;10.50;99.90;;;;;;4994780;28;20050;-82
2022/09/16 04:42:11;;;;;;;9.02;2.03;;;10.50;99.90;;;;;;4996709;28;20038;-82
2022/09/16 04:44:38;;;;;;;4.45;1.45;;;10.40;99.90;;;;;;4994175;28;20508;-82
2022/09/16 04:47:03;;;;;;;7.13;1.38;;;10.40;99.90;;;;;;4994239;28;20043;-82
2022/09/16 04:49:29;;;;;;;9.10;1.77;;;10.40;99.90;;;;;;4994572;28;20042;-83
2022/09/16 04:51:55;;;;;;;9.38;1.75;;;10.40;99.90;;;;;;4994209;28;20433;-82
2022/09/16 04:54:20;;;;;;;7.90;1.42;;;10.40;99.90;;;;;;4978197;28;20390;-81
2022/09/16 04:56:46;;;;;;;11.48;1.75;;;10.40;99.90;;;;;;4995639;28;20485;-81
2022/09/16 04:59:12;;;;;;;10.70;1.83;;;10.30;99.90;;;;;;4993887;28;20507;-80
2022/09/16 05:01:38;;;;;;;7.57;1.95;;;10.30;99.90;;;;;;4994869;28;20418;-83
2022/09/16 05:04:06;;;;;;;12.55;1.38;;;10.30;99.90;;;;;;4978021;28;20042;-85
2022/09/16 05:06:38;;;;;;;10.10;1.67;;;10.30;99.90;;;;;;4994028;28;20501;-81
2022/09/16 05:09:04;;;;;;;8.43;1.42;;;10.20;99.90;;;;;;4995067;28;20035;-82
2022/09/16 05:11:33;;;;;;;8.35;1.35;;;10.20;99.90;;;;;;4995365;28;20380;-80
2022/09/16 05:14:03;;;;;;;10.95;1.58;;;10.20;99.90;;;;;;4993561;28;20508;-83
2022/09/16 05:16:29;;;;;;;12.90;1.65;;;10.20;99.90;;;;;;4995180;28;20088;-81
2022/09/16 05:18:57;;;;;;;16.45;2.45;;;10.20;99.90;;;;;;4997547;28;20065;-80
2022/09/16 05:21:25;;;;;;;10.73;1.77;;;10.20;99.90;;;;;;5004097;28;20370;-79
2022/09/16 05:23:50;;;;;;;10.20;1.70;;;10.20;99.90;;;;;;5003556;28;20034;-78
2022/09/16 05:26:19;;;;;;;9.70;1.92;;;10.20;99.90;;;;;;5002476;28;20097;-83
2022/09/16 05:28:45;;;;;;;9.77;1.70;;;10.20;99.90;;;;;;4994912;28;20073;-83
2022/09/16 05:31:24;;;;;;;6.68;1.27;;;10.30;99.90;;;;;;4993827;28;20046;-83
2022/09/16 05:33:56;;;;;;;9.57;1.50;;;10.30;99.90;;;;;;4977610;28;20039;-82
2022/09/16 05:36:23;;;;;;;9.30;1.27;;;10.30;99.90;;;;;;4993786;28;20153;-82
2022/09/16 05:38:49;;;;;;;11.13;1.38;;;10.40;99.90;;;;;;4993586;28;20034;-84
2022/09/16 05:41:14;;;;;;;11.45;1.55;;;10.40;99.90;;;;;;4994985;28;20081;-82
2022/09/16 05:43:40;;;;;;;8.90;1.52;;;10.30;99.90;;;;;;4995107;28;20394;-83
2022/09/16 05:46:06;;;;;;;12.95;1.55;;;10.40;99.90;;;;;;4993522;28;20493;-82
2022/09/16 05:48:33;;;;;;;10.60;1.65;;;10.40;99.90;;;;;;4994817;28;20104;-81
2022/09/16 05:51:06;;;;;;;7.18;1.50;;;10.40;99.90;;;;;;4993613;28;20126;-82
2022/09/16 05:53:33;;;;;;;13.65;2.08;;;10.40;99.90;;;;;;4994795;28;20038;-83
2022/09/16 05:56:04;;;;;;;11.38;1.42;;;10.40;99.90;;;;;;4993213;28;20042;-80
2022/09/16 05:58:31;;;;;;;8.23;1.58;;;10.40;99.90;;;;;;4994137;28;20042;-83
2022/09/16 06:01:09;;;;;;;7.30;1.40;;;10.40;99.90;;;;;;4992421;28;20050;-80
2022/09/16 06:03:36;;;;;;;9.43;1.42;;;10.50;99.90;;;;;;4992724;28;20042;-79
2022/09/16 06:06:05;;;;;;;8.98;1.38;;;10.50;99.90;;;;;;4994066;28;20039;-80
2022/09/16 06:08:32;;;;;;;8.75;1.40;;;10.50;99.90;;;;;;4976376;28;20047;-81
2022/09/16 06:11:05;;;;;;;14.20;1.77;;;10.50;99.90;;;;;;4992567;28;20054;-82
2022/09/16 06:13:32;;;;;;;8.15;1.30;;;10.50;99.90;;;;;;4992856;28;20502;-83
2022/09/16 06:15:57;;;;;;;12.02;1.55;;;10.50;99.90;;;;;;4992817;28;20438;-81
2022/09/16 06:18:25;;;;;;;8.43;1.33;;;10.50;99.90;;;;;;4994052;28;20077;-82
2022/09/16 06:20:51;;;;;;;8.10;1.42;;;10.50;99.90;;;;;;4979335;28;20043;-82
2022/09/16 06:23:18;;;;;;;7.35;1.73;;;10.60;99.90;;;;;;4996557;28;20038;-82
2022/09/16 06:25:43;;;;;;;5.88;1.10;;;10.70;99.90;;;;;;4996451;28;20117;-81
2022/09/16 06:28:10;;;;;;;9.98;1.33;;;10.70;99.90;;;;;;4997935;28;20143;-83
2022/09/16 06:30:37;;;;;;;9.93;0.98;;;10.80;99.90;;;;;;4997806;28;20441;-83
2022/09/16 06:33:03;;;;;;;13.52;1.92;;;10.80;99.90;;;;;;4997932;28;20390;-81
2022/09/16 06:35:29;;;;;;;9.93;1.40;;;10.80;99.90;;;;;;4996877;28;20043;-83
2022/09/16 06:37:55;;;;;;;15.68;1.70;;;10.90;99.90;;;;;;4996176;28;20046;-82
2022/09/16 06:40:20;;;;;;;13.68;1.63;;;11.00;99.90;;;;;;4997578;28;20121;-82
2022/09/16 06:42:46;;;;;;;10.70;1.00;;;11.10;99.90;;;;;;4997682;28;20035;-82
2022/09/16 06:45:12;;;;;;;8.15;1.13;;;11.20;99.90;;;;;;4998047;28;20493;-82
2022/09/16 06:47:38;;;;;;;12.82;2.20;;;11.30;99.90;;;;;;4997559;28;20077;-82
2022/09/16 06:50:05;;;;;;;5.68;1.25;;;11.40;99.90;;;;;;4997755;28;20038;-81
2022/09/16 06:52:31;;;;;;;9.52;1.50;;;11.50;99.90;;;;;;4979887;28;20050;-82
2022/09/16 06:54:57;;;;;;;8.65;1.20;;;11.70;99.90;;;;;;4997373;28;20092;-83
2022/09/16 06:57:23;;;;;;;10.13;2.15;;;11.70;99.90;;;;;;4996820;28;20370;-82
2022/09/16 06:59:49;;;;;;;6.68;1.38;;;11.80;99.90;;;;;;4996049;28;20498;-82
2022/09/16 07:02:15;;;;;;;12.45;1.77;;;11.80;99.90;;;;;;4997143;28;20045;-83
2022/09/16 07:04:41;;;;;;;7.82;1.02;;;11.90;99.90;;;;;;4997258;28;20125;-83
2022/09/16 07:07:07;;;;;;;10.25;1.50;;;12.00;99.90;;;;;;4996869;28;20500;-82
2022/09/16 07:09:33;;;;;;;8.88;1.73;;;12.00;99.90;;;;;;4995921;28;20050;-82
2022/09/16 07:11:59;;;;;;;8.90;1.20;;;12.20;99.90;;;;;;4996930;28;20121;-84
2022/09/16 07:14:26;;;;;;;9.45;1.67;;;12.20;99.90;;;;;;4996997;28;20129;-82
2022/09/16 07:16:52;;;;;;;8.93;1.40;;;12.30;99.90;;;;;;4994640;28;20082;-84
2022/09/16 07:19:19;;;;;;;5.75;1.30;;;12.40;99.90;;;;;;4979687;28;20115;-84
2022/09/16 07:21:45;;;;;;;7.82;1.42;;;12.40;99.90;;;;;;4995223;28;20038;-83
2022/09/16 07:24:12;;;;;;;10.93;1.23;;;12.50;99.90;;;;;;4997775;28;20061;-84
2022/09/16 07:26:40;;;;;;;5.85;1.55;;;12.50;99.90;;;;;;4996626;28;20060;-82
2022/09/16 07:29:08;;;;;;;7.85;1.13;;;12.50;99.90;;;;;;4997018;28;20117;-79
2022/09/16 07:31:36;;;;;;;7.32;1.30;;;12.60;99.90;;;;;;4995354;28;20121;-69
2022/09/16 07:34:04;;;;;;;12.75;1.42;;;12.60;99.90;;;;;;4995203;28;20121;-72
2022/09/16 07:36:43;;;;;;;9.95;1.35;;;12.70;99.90;;;;;;4995540;28;20042;-75
2022/09/16 07:39:10;;;;;;;8.77;1.30;;;12.70;99.90;;;;;;4996497;28;20039;-73
2022/09/16 07:41:39;;;;;;;8.32;1.23;;;12.90;99.90;;;;;;4996526;28;20450;-73
2022/09/16 07:44:06;;;;;;;10.45;1.17;;;12.90;99.90;;;;;;4995274;28;20429;-72
2022/09/16 07:46:34;;;;;;;10.32;1.20;;;13.00;99.90;;;;;;4996452;28;20035;-84
2022/09/16 07:49:18;;;;;;;9.02;1.25;;;13.00;99.90;;;;;;5003213;28;20045;-88
2022/09/16 07:51:47;;;;;;;11.15;1.63;;;13.10;99.90;;;;;;5249456;23;20050;-84
2022/09/16 07:54:15;;;;;;;9.80;1.50;;;13.10;99.90;;;;;;4997517;28;20077;-73
2022/09/16 07:56:42;;;;;;;13.50;1.27;;;13.20;99.90;;;;;;4997306;28;20035;-82
2022/09/16 07:59:12;;;;;;;13.32;1.73;;;13.30;99.90;;;;;;4995029;28;20140;-81
2022/09/16 08:01:37;;;;;;;11.77;1.40;;;13.40;99.90;;;;;;4983642;28;20053;-77
2022/09/16 08:04:03;;;;;;;18.45;2.08;;;13.50;99.90;;;;;;4976184;28;20039;-82
2022/09/16 08:06:50;;;;;;;10.18;1.20;;;13.60;99.90;;;;;;4979899;28;20046;-82
2022/09/16 08:09:15;;;;;;;6.47;1.10;;;13.80;99.90;;;;;;4971703;28;20201;-81
2022/09/16 08:11:41;;;;;;;10.38;1.63;;;13.90;99.90;;;;;;4973923;28;20130;-79
2022/09/16 08:14:07;;;;;;;10.68;1.50;;;14.00;99.90;;;;;;4994214;28;20046;-84
2022/09/16 08:16:32;;;;;;;9.00;1.38;;;14.00;99.90;;;;;;4996802;28;20046;-81
2022/09/16 08:18:58;;;;;;;9.88;1.30;;;14.20;99.90;;;;;;4997242;28;20046;-80
2022/09/16 08:21:26;;;;;;;8.00;1.50;;;14.30;99.90;;;;;;4996069;28;20136;-77
2022/09/16 08:23:56;;;;;;;10.25;1.45;;;14.40;99.90;;;;;;4995654;28;20046;-70
2022/09/16 08:26:22;;;;;;;10.95;1.48;;;14.40;99.90;;;;;;4993985;28;20042;-72
2022/09/16 08:28:49;;;;;;;8.25;1.45;;;14.40;99.90;;;;;;4996268;28;20088;-75
2022/09/16 08:31:16;;;;;;;13.15;2.67;;;14.30;99.90;;;;;;4995484;28;20117;-77
2022/09/16 08:33:42;;;;;;;15.95;2.53;;;14.20;99.90;;;;;;4994464;28;20043;-77
2022/09/16 08:36:21;;;;;;;13.00;1.77;;;14.10;99.90;;;;;;4994138;28;20100;-76
2022/09/16 08:38:49;;;;;;;15.07;1.98;;;14.10;99.90;;;;;;4994350;28;20054;-72
2022/09/16 08:41:40;;;;;;;15.90;2.65;;;14.10;99.90;;;;;;4995183;28;20390;-74
2022/09/16 08:44:33;;;;;;;15.98;2.10;;;14.10;99.90;;;;;;4994577;28;20042;-83
2022/09/16 08:47:21;;;;;;;14.18;2.30;;;14.20;99.90;;;;;;4978327;28;20042;-79
2022/09/16 08:49:49;;;;;;;10.70;1.73;;;14.40;99.90;;;;;;4993832;28;20046;-79
2022/09/16 08:52:36;;;;;;;9.40;1.33;;;14.50;99.90;;;;;;4995942;28;20428;-79
2022/09/16 08:55:30;;;;;;;10.23;1.58;;;14.60;99.90;;;;;;4994200;28;20046;-78
2022/09/16 08:57:56;;;;;;;14.52;1.88;;;14.60;99.90;;;;;;4995480;28;20390;-80
2022/09/16 09:00:21;;;;;;;11.25;1.38;;;14.70;99.90;;;;;;4996708;28;20048;-76
2022/09/16 09:02:53;;;;;;;9.90;1.20;;;14.80;99.90;;;;;;4991847;28;20097;-79
2022/09/16 09:05:22;;;;;;;13.40;1.50;;;14.90;99.90;;;;;;4993182;28;20042;-79
2022/09/16 09:08:32;;;;;;;12.13;1.67;;;15.10;99.90;;;;;;4993028;28;20057;-78
2022/09/16 09:11:28;;;;;;;8.85;1.55;;;15.20;99.90;;;;;;4921033;29;20047;-81
2022/09/16 09:14:19;;;;;;;13.32;1.80;;;15.30;99.90;;;;;;4992444;28;20073;-81
2022/09/16 09:17:24;;;;;;;8.52;1.27;;;15.40;99.90;;;;;;4995070;28;20478;-80
2022/09/16 09:20:27;;;;;;;11.20;1.73;;;15.50;99.90;;;;;;4961486;28;20046;-81
2022/09/16 09:23:18;;;;;;;9.57;1.30;;;15.70;99.90;;;;;;4993733;28;20466;-82
2022/09/16 09:25:44;;;;;;;7.38;1.27;;;15.70;99.90;;;;;;4995489;28;20128;-84
2022/09/16 09:28:40;;;;;;;9.27;1.55;;;15.70;99.90;;;;;;4977013;28;20505;-77
2022/09/16 09:31:08;;;;;;;;;;;15.60;99.90;;;;;;4995289;28;20121;-76
2022/09/16 09:34:03;;;;;;;9.95;1.58;;;15.70;99.90;;;;;;4993587;28;19940;-78
2022/09/16 09:36:56;;;;;;;10.98;1.17;;;15.80;99.90;;;;;;4971099;28;20055;-79
2022/09/16 09:39:45;;;;;;;11.93;1.95;;;15.90;99.90;;;;;;4993176;28;20506;-78
2022/09/16 09:42:29;;;;;;;8.23;1.38;;;16.00;99.90;;;;;;4993803;28;20403;-78
2022/09/16 09:45:16;;;;;;;9.85;1.50;;;16.20;99.90;;;;;;4993941;28;20497;-78
2022/09/16 09:48:00;;;;;;;14.57;1.95;;;16.30;99.90;;;;;;4993467;28;20058;-80
2022/09/16 09:50:36;;;;;;;8.70;1.40;;;16.40;99.90;;;;;;4993127;28;20173;-78
2022/09/16 09:53:27;;;;;;;8.15;1.63;;;16.50;99.90;;;;;;4993951;28;20054;-79
2022/09/16 09:56:11;;;;;;;9.20;1.55;;;16.40;99.90;;;;;;4994122;28;20034;-78
2022/09/16 09:59:03;;;;;;;9.10;1.25;;;16.50;99.90;;;;;;4993426;28;20395;-78
2022/09/16 10:01:29;;;;;;;10.95;1.65;;;16.60;99.90;;;;;;4977015;28;20494;-77
2022/09/16 10:03:57;;;;;;;7.68;1.20;;;16.70;99.90;;;;;;4993143;28;20117;-80
2022/09/16 10:06:32;;;;;;;10.95;1.55;;;16.80;99.90;;;;;;4993956;28;20105;-84
2022/09/16 10:08:57;;;;;;;14.85;1.90;;;16.80;99.90;;;;;;4993590;28;20471;-79
2022/09/16 10:11:30;;;;;;;12.70;1.65;;;16.80;99.90;;;;;;4992946;28;20132;-80
2022/09/16 10:14:00;;;;;;;8.43;1.50;;;16.80;99.90;;;;;;4993113;28;20046;-78
2022/09/16 10:16:33;;;;;;;12.95;1.90;;;16.80;99.90;;;;;;4993436;28;20042;-78
